createdAt,value
2023-04-08T00:01:34.859Z,12.07
2023-04-08T00:04:23.109Z,12.67
2023-04-08T00:07:12.775Z,12.17
2023-04-08T00:10:01.131Z,10.23
2023-04-08T00:12:49.806Z,11.03
2023-04-08T00:15:38.577Z,11.13
2023-04-08T00:18:27.217Z,11.23
2023-04-08T00:21:17.920Z,11.97
2023-04-08T00:24:07.824Z,10.57
2023-04-08T00:26:56.572Z,10.87
2023-04-08T00:29:44.987Z,10.40
2023-04-08T00:32:33.208Z,11.73
2023-04-08T00:35:21.689Z,10.23
2023-04-08T00:38:10.016Z,11.17
2023-04-08T00:40:59.547Z,9.37
2023-04-08T00:43:47.725Z,11.50
2023-04-08T00:46:39.469Z,11.30
2023-04-08T00:49:28.035Z,10.63
2023-04-08T00:52:17.161Z,10.80
2023-04-08T00:55:06.205Z,11.50
2023-04-08T00:57:57.076Z,11.17
2023-04-08T01:00:52.889Z,17.07
2023-04-08T01:03:51.425Z,11.13
2023-04-08T01:06:43.649Z,11.30
2023-04-08T01:09:34.647Z,11.77
2023-04-08T01:12:27.339Z,13.63
2023-04-08T01:15:17.241Z,11.07
2023-04-08T01:18:09.109Z,11.03
2023-04-08T01:20:57.806Z,13.80
2023-04-08T01:23:55.901Z,11.33
2023-04-08T01:26:46.296Z,13.37
2023-04-08T01:29:36.461Z,9.80
2023-04-08T01:32:27.288Z,11.60
2023-04-08T01:35:17.235Z,11.33
2023-04-08T01:38:08.618Z,10.50
2023-04-08T01:40:58.172Z,12.30
2023-04-08T01:43:48.749Z,13.40
2023-04-08T01:46:38.081Z,9.70
2023-04-08T01:49:27.123Z,12.30
2023-04-08T01:52:17.606Z,11.00
2023-04-08T01:55:06.634Z,12.20
2023-04-08T01:57:57.249Z,10.83
2023-04-08T02:00:47.804Z,10.17
2023-04-08T02:03:37.752Z,11.77
2023-04-08T02:06:29.334Z,10.97
2023-04-08T02:09:17.492Z,10.67
2023-04-08T02:12:05.941Z,12.33
2023-04-08T02:14:54.931Z,11.63
2023-04-08T02:17:47.532Z,11.13
2023-04-08T02:20:40.057Z,13.23
2023-04-08T02:23:31.017Z,10.60
2023-04-08T02:26:20.152Z,12.23
2023-04-08T02:29:13.414Z,12.40
2023-04-08T02:32:03.236Z,13.20
2023-04-08T02:34:53.523Z,12.00
2023-04-08T02:37:42.284Z,10.80
2023-04-08T02:40:32.587Z,10.20
2023-04-08T02:43:20.702Z,13.57
2023-04-08T02:46:09.463Z,12.13
2023-04-08T02:48:57.628Z,10.43
2023-04-08T02:51:47.004Z,10.17
2023-04-08T02:54:35.236Z,11.13
2023-04-08T02:57:23.414Z,10.33
2023-04-08T03:00:12.889Z,11.33
2023-04-08T03:03:01.257Z,12.23
2023-04-08T03:05:50.161Z,10.27
2023-04-08T03:08:39.605Z,10.63
2023-04-08T03:11:27.767Z,10.07
2023-04-08T03:14:16.653Z,11.63
2023-04-08T03:17:04.815Z,10.53
2023-04-08T03:19:52.894Z,10.93
2023-04-08T03:22:41.088Z,13.57
2023-04-08T03:25:31.707Z,10.43
2023-04-08T03:28:19.856Z,9.03
2023-04-08T03:31:08.379Z,9.70
2023-04-08T03:33:56.523Z,10.47
2023-04-08T03:36:44.567Z,11.27
2023-04-08T03:39:32.682Z,10.27
2023-04-08T03:42:22.299Z,10.97
2023-04-08T03:45:10.955Z,10.27
2023-04-08T03:47:59.169Z,9.83
2023-04-08T03:50:47.257Z,11.57
2023-04-08T03:53:35.725Z,9.73
2023-04-08T03:56:26.080Z,10.43
2023-04-08T03:59:15.761Z,10.40
2023-04-08T04:02:03.987Z,11.77
2023-04-08T04:04:52.172Z,10.73
2023-04-08T04:07:40.481Z,12.37
2023-04-08T04:10:28.572Z,11.83
2023-04-08T04:13:16.735Z,10.73
2023-04-08T04:16:06.829Z,11.63
2023-04-08T04:18:55.122Z,11.90
2023-04-08T04:21:43.229Z,9.97
2023-04-08T04:24:31.269Z,11.83
2023-04-08T04:27:19.344Z,9.60
2023-04-08T04:30:09.752Z,12.67
2023-04-08T04:32:59.356Z,12.77
2023-04-08T04:35:47.813Z,10.90
2023-04-08T04:38:37.089Z,11.80
2023-04-08T04:41:25.159Z,10.90
2023-04-08T04:44:13.589Z,12.73
2023-04-08T04:47:02.008Z,12.60
2023-04-08T04:49:51.799Z,12.70
2023-04-08T04:52:39.957Z,11.63
2023-04-08T04:55:28.102Z,12.23
2023-04-08T04:58:16.560Z,12.70
2023-04-08T05:01:04.664Z,12.10
2023-04-08T05:03:53.173Z,11.67
2023-04-08T05:06:43.186Z,12.80
2023-04-08T05:09:31.682Z,13.50
2023-04-08T05:12:20.869Z,12.43
2023-04-08T05:15:10.008Z,13.43
2023-04-08T05:17:58.386Z,11.73
2023-04-08T05:20:46.882Z,11.13
2023-04-08T05:23:37.846Z,12.17
2023-04-08T05:26:26.412Z,10.60
2023-04-08T05:29:14.858Z,10.67
2023-04-08T05:32:03.085Z,11.53
2023-04-08T05:34:51.204Z,9.83
2023-04-08T05:37:39.405Z,9.33
2023-04-08T05:40:29.386Z,9.70
2023-04-08T05:43:17.669Z,11.23
2023-04-08T05:46:08.130Z,12.53
2023-04-08T05:48:56.440Z,11.17
2023-04-08T05:51:44.606Z,10.57
2023-04-08T05:54:32.727Z,9.57
2023-04-08T05:57:22.529Z,10.43
2023-04-08T06:00:12.226Z,10.47
2023-04-08T06:03:00.497Z,11.33
2023-04-08T06:05:48.862Z,11.00
2023-04-08T06:08:36.943Z,10.40
2023-04-08T06:11:25.491Z,10.97
2023-04-08T06:14:15.735Z,12.67
2023-04-08T06:17:03.984Z,8.87
2023-04-08T06:19:52.149Z,10.37
2023-04-08T06:22:40.476Z,8.73
2023-04-08T06:25:28.615Z,10.10
2023-04-08T06:28:16.688Z,9.67
2023-04-08T06:31:06.596Z,9.30
2023-04-08T06:33:56.005Z,10.27
2023-04-08T06:36:44.349Z,9.77
2023-04-08T06:39:32.693Z,10.93
2023-04-08T06:42:22.607Z,10.17
2023-04-08T06:45:12.412Z,9.83
2023-04-08T06:48:02.258Z,9.23
2023-04-08T06:50:50.502Z,9.13
2023-04-08T06:53:38.808Z,10.20
2023-04-08T06:56:27.441Z,9.90
2023-04-08T06:59:16.001Z,13.90
2023-04-08T07:02:04.518Z,10.47
2023-04-08T07:04:54.620Z,11.37
2023-04-08T07:07:42.940Z,11.30
2023-04-08T07:10:31.505Z,12.17
2023-04-08T07:13:19.642Z,11.17
2023-04-08T07:16:08.396Z,11.40
2023-04-08T07:18:57.028Z,11.90
2023-04-08T07:24:35.473Z,12.57
2023-04-08T07:27:23.601Z,13.33
2023-04-08T07:30:12.751Z,11.87
2023-04-08T07:33:01.055Z,13.30
2023-04-08T07:35:49.569Z,12.07
2023-04-08T07:38:39.185Z,12.40
2023-04-08T07:41:27.524Z,12.77
2023-04-08T07:44:17.341Z,12.20
2023-04-08T07:47:05.800Z,11.50
2023-04-08T07:49:54.751Z,12.97
2023-04-08T07:52:42.973Z,11.20
2023-04-08T07:55:36.512Z,12.90
2023-04-08T07:58:25.355Z,11.63
2023-04-08T08:01:18.746Z,10.90
2023-04-08T08:04:07.272Z,11.40
2023-04-08T08:06:56.233Z,10.73
2023-04-08T08:09:44.790Z,10.50
2023-04-08T08:12:34.617Z,10.47
2023-04-08T08:15:22.807Z,12.70
2023-04-08T08:18:11.041Z,12.07
2023-04-08T08:20:59.700Z,10.03
2023-04-08T08:23:48.388Z,11.30
2023-04-08T08:26:37.880Z,11.77
2023-04-08T08:29:27.425Z,11.50
2023-04-08T08:32:15.778Z,11.93
2023-04-08T08:35:03.884Z,12.00
2023-04-08T08:37:52.083Z,12.47
2023-04-08T08:40:40.418Z,15.17
2023-04-08T08:43:30.051Z,11.60
2023-04-08T08:46:20.207Z,14.00
2023-04-08T08:49:08.230Z,14.07
2023-04-08T08:51:56.950Z,12.50
2023-04-08T08:54:45.112Z,13.20
2023-04-08T08:57:33.208Z,14.70
2023-04-08T09:00:34.737Z,13.37
2023-04-08T09:03:27.404Z,14.37
2023-04-08T09:06:19.818Z,13.80
2023-04-08T09:09:10.540Z,13.53
2023-04-08T09:12:05.218Z,13.60
2023-04-08T09:15:03.913Z,14.07
2023-04-08T09:17:52.225Z,11.70
2023-04-08T09:20:53.948Z,12.87
2023-04-08T09:23:43.833Z,12.40
2023-04-08T09:26:31.924Z,12.77
2023-04-08T09:29:26.433Z,15.57
2023-04-08T09:32:15.761Z,13.37
2023-04-08T09:35:04.819Z,14.30
2023-04-08T09:37:56.605Z,13.90
2023-04-08T09:40:46.034Z,13.63
2023-04-08T09:43:37.860Z,16.13
2023-04-08T09:46:29.266Z,15.27
2023-04-08T09:49:27.042Z,15.70
2023-04-08T09:52:21.109Z,14.60
2023-04-08T09:55:13.626Z,15.10
2023-04-08T09:58:05.153Z,16.27
2023-04-08T10:00:55.738Z,17.70
2023-04-08T10:03:49.961Z,16.80
2023-04-08T10:06:39.385Z,18.73
2023-04-08T10:09:29.349Z,17.23
2023-04-08T10:12:19.064Z,15.13
2023-04-08T10:15:27.704Z,17.17
2023-04-08T10:18:34.710Z,16.37
2023-04-08T10:21:39.795Z,16.43
2023-04-08T10:24:28.149Z,13.53
2023-04-08T10:27:40.995Z,15.83
2023-04-08T10:30:45.833Z,15.40
2023-04-08T10:33:37.262Z,17.13
2023-04-08T10:36:28.125Z,16.00
2023-04-08T10:39:16.716Z,15.93
2023-04-08T10:42:05.175Z,14.47
2023-04-08T10:44:54.885Z,14.90
2023-04-08T10:47:43.011Z,14.97
2023-04-08T10:50:32.366Z,15.03
2023-04-08T10:53:26.851Z,14.97
2023-04-08T10:56:18.227Z,15.47
2023-04-08T10:59:06.954Z,17.97
2023-04-08T11:01:56.534Z,14.20
2023-04-08T11:04:45.012Z,17.10
2023-04-08T11:07:33.596Z,14.10
2023-04-08T11:10:21.748Z,16.47
2023-04-08T11:13:10.759Z,14.23
2023-04-08T11:16:00.689Z,15.33
2023-04-08T11:18:52.227Z,15.23
2023-04-08T11:21:40.619Z,16.00
2023-04-08T11:24:28.896Z,13.17
2023-04-08T11:27:17.291Z,16.13
2023-04-08T11:30:08.029Z,17.93
2023-04-08T11:32:57.960Z,14.03
2023-04-08T11:35:47.392Z,17.97
2023-04-08T11:38:41.200Z,16.80
2023-04-08T11:41:38.349Z,16.87
2023-04-08T11:44:32.588Z,16.53
2023-04-08T11:47:20.904Z,16.37
2023-04-08T11:50:10.278Z,16.03
2023-04-08T11:52:59.806Z,18.23
2023-04-08T11:55:49.151Z,21.43
2023-04-08T11:58:37.339Z,18.47
2023-04-08T12:01:25.854Z,18.53
2023-04-08T12:04:14.289Z,18.27
2023-04-08T12:07:03.058Z,18.57
2023-04-08T12:09:52.938Z,17.27
2023-04-08T12:12:41.651Z,20.17
2023-04-08T12:15:30.114Z,20.40
2023-04-08T12:18:18.214Z,21.07
2023-04-08T12:21:06.355Z,21.47
2023-04-08T12:23:54.592Z,20.07
2023-04-08T12:26:44.057Z,20.87
2023-04-08T12:29:32.148Z,18.40
2023-04-08T12:32:20.766Z,19.20
2023-04-08T12:35:09.548Z,19.93
2023-04-08T12:37:58.014Z,17.87
2023-04-08T12:40:46.743Z,17.90
2023-04-08T12:43:39.137Z,17.17
2023-04-08T12:46:27.798Z,18.33
2023-04-08T12:49:16.229Z,16.10
2023-04-08T12:52:05.509Z,17.80
2023-04-08T12:54:53.606Z,17.47
2023-04-08T12:57:41.648Z,17.07
2023-04-08T13:00:31.083Z,16.10
2023-04-08T13:03:19.399Z,16.83
2023-04-08T13:06:07.590Z,15.33
2023-04-08T13:08:56.414Z,15.77
2023-04-08T13:11:44.469Z,15.27
2023-04-08T13:14:32.929Z,15.43
2023-04-08T13:17:22.915Z,15.90
2023-04-08T13:20:11.761Z,15.47
2023-04-08T13:23:00.697Z,17.07
2023-04-08T13:25:49.572Z,17.60
2023-04-08T13:28:49.679Z,15.40
2023-04-08T13:31:42.529Z,17.93
2023-04-08T13:34:32.267Z,16.87
2023-04-08T13:37:20.656Z,16.80
2023-04-08T13:40:09.910Z,17.63
2023-04-08T13:42:58.176Z,18.53
2023-04-08T13:45:46.345Z,14.93
2023-04-08T13:48:34.867Z,16.93
2023-04-08T13:51:24.427Z,15.87
2023-04-08T13:54:12.695Z,17.37
2023-04-08T13:57:01.178Z,17.83
2023-04-08T13:59:49.326Z,16.57
2023-04-08T14:02:37.943Z,17.17
2023-04-08T14:05:26.447Z,17.07
2023-04-08T14:08:16.132Z,17.33
2023-04-08T14:11:04.162Z,19.03
2023-04-08T14:13:52.656Z,18.37
2023-04-08T14:16:41.748Z,16.87
2023-04-08T14:19:30.687Z,17.07
2023-04-08T14:22:19.176Z,18.13
2023-04-08T14:25:10.063Z,18.27
2023-04-08T14:27:59.008Z,16.47
2023-04-08T14:30:47.690Z,17.03
2023-04-08T14:33:36.171Z,16.50
2023-04-08T14:36:24.592Z,16.80
2023-04-08T14:39:13.709Z,15.27
2023-04-08T14:42:03.154Z,17.90
2023-04-08T14:44:51.348Z,17.13
2023-04-08T14:47:39.590Z,16.23
2023-04-08T14:50:27.811Z,17.60
2023-04-08T14:53:17.071Z,16.00
2023-04-08T14:56:05.574Z,16.73
2023-04-08T14:58:55.387Z,19.97
2023-04-08T15:01:44.956Z,17.13
2023-04-08T15:04:33.444Z,19.00
2023-04-08T15:07:22.768Z,16.63
2023-04-08T15:10:11.724Z,19.23
2023-04-08T15:12:59.939Z,16.97
2023-04-08T15:15:49.432Z,16.53
2023-04-08T15:18:37.596Z,16.90
2023-04-08T15:21:26.725Z,16.33
2023-04-08T15:24:15.118Z,17.37
2023-04-08T15:27:03.544Z,18.67
2023-04-08T15:29:51.681Z,17.43
2023-04-08T15:32:41.495Z,17.90
2023-04-08T15:35:30.580Z,19.20
2023-04-08T15:38:19.072Z,17.70
2023-04-08T15:41:07.083Z,14.40
2023-04-08T15:43:55.161Z,17.03
2023-04-08T15:46:43.189Z,14.43
2023-04-08T15:49:33.006Z,13.97
2023-04-08T15:52:21.425Z,12.47
2023-04-08T15:55:10.149Z,14.10
2023-04-08T15:57:58.298Z,14.23
2023-04-08T16:00:46.394Z,16.87
2023-04-08T16:03:35.153Z,16.40
2023-04-08T16:06:24.970Z,13.93
2023-04-08T16:09:13.296Z,15.87
2023-04-08T16:12:01.602Z,17.60
2023-04-08T16:14:49.664Z,14.87
2023-04-08T16:17:37.982Z,16.13
2023-04-08T16:20:27.126Z,15.00
2023-04-08T16:23:17.831Z,17.70
2023-04-08T16:26:07.969Z,17.10
2023-04-08T16:28:56.242Z,16.60
2023-04-08T16:31:44.495Z,14.53
2023-04-08T16:34:32.701Z,15.73
2023-04-08T16:37:20.882Z,16.07
2023-04-08T16:40:12.144Z,15.10
2023-04-08T16:43:00.747Z,15.13
2023-04-08T16:45:49.397Z,18.23
2023-04-08T16:48:37.937Z,16.50
2023-04-08T16:51:26.104Z,15.17
2023-04-08T16:54:14.777Z,16.03
2023-04-08T16:57:04.936Z,15.40
2023-04-08T16:59:53.412Z,16.60
2023-04-08T17:02:41.977Z,14.73
2023-04-08T17:05:31.034Z,15.43
2023-04-08T17:08:19.473Z,14.33
2023-04-08T17:11:10.500Z,14.70
2023-04-08T17:14:00.913Z,15.50
2023-04-08T17:16:49.194Z,15.67
2023-04-08T17:19:38.338Z,15.20
2023-04-08T17:22:26.561Z,17.77
2023-04-08T17:25:15.147Z,16.30
2023-04-08T17:28:03.205Z,13.60
2023-04-08T17:30:52.799Z,14.17
2023-04-08T17:33:40.846Z,15.10
2023-04-08T17:36:30.526Z,13.43
2023-04-08T17:39:19.656Z,16.17
2023-04-08T17:42:07.953Z,17.10
2023-04-08T17:44:59.027Z,15.47
2023-04-08T17:47:48.860Z,14.10
2023-04-08T17:50:37.475Z,15.77
2023-04-08T17:53:25.852Z,15.40
2023-04-08T17:56:13.955Z,16.17
2023-04-08T17:59:02.000Z,17.97
2023-04-08T18:01:50.245Z,16.60
2023-04-08T18:04:40.013Z,19.27
2023-04-08T18:07:28.675Z,22.67
2023-04-08T18:10:17.339Z,24.53
2023-04-08T18:13:11.191Z,23.43
2023-04-08T18:16:00.387Z,31.30
2023-04-08T18:18:48.959Z,35.63
2023-04-08T18:21:38.416Z,35.10
2023-04-08T18:24:26.839Z,36.97
2023-04-08T18:27:14.866Z,40.70
2023-04-08T18:30:03.035Z,34.27
2023-04-08T18:32:51.183Z,33.83
2023-04-08T18:35:39.406Z,27.57
2023-04-08T18:38:29.229Z,22.27
2023-04-08T18:41:20.933Z,24.93
2023-04-08T18:44:09.185Z,20.80
2023-04-08T18:46:57.448Z,22.50
2023-04-08T18:49:46.437Z,20.77
2023-04-08T18:52:34.909Z,43.00
2023-04-08T18:55:24.421Z,31.03
2023-04-08T18:58:12.967Z,22.97
2023-04-08T19:01:01.256Z,22.93
2023-04-08T19:03:49.630Z,23.83
2023-04-08T19:06:39.632Z,20.80
2023-04-08T19:09:27.808Z,19.77
2023-04-08T19:12:17.359Z,23.80
2023-04-08T19:15:06.609Z,24.03
2023-04-08T19:17:54.658Z,23.70
2023-04-08T19:20:42.750Z,24.70
2023-04-08T19:23:32.124Z,25.23
2023-04-08T19:26:20.264Z,25.83
2023-04-08T19:29:11.923Z,27.77
2023-04-08T19:32:00.097Z,30.07
2023-04-08T19:34:48.515Z,30.50
2023-04-08T19:37:36.483Z,31.13
2023-04-08T19:40:24.606Z,36.87
2023-04-08T19:43:12.661Z,30.67
2023-04-08T19:46:02.465Z,32.90
2023-04-08T19:48:50.648Z,35.60
2023-04-08T19:51:38.759Z,30.67
2023-04-08T19:54:26.951Z,30.63
2023-04-08T19:57:15.705Z,30.83
2023-04-08T20:00:05.546Z,33.23
2023-04-08T20:02:55.335Z,32.07
2023-04-08T20:05:43.585Z,33.47
2023-04-08T20:08:31.641Z,29.87
2023-04-08T20:11:19.694Z,32.70
2023-04-08T20:14:07.837Z,30.87
2023-04-08T20:16:56.996Z,32.07
2023-04-08T20:19:46.685Z,35.07
2023-04-08T20:22:34.736Z,34.47
2023-04-08T20:25:23.250Z,34.33
2023-04-08T20:28:11.639Z,45.73
2023-04-08T20:30:59.778Z,41.40
2023-04-08T20:33:47.853Z,29.53
2023-04-08T20:36:38.776Z,36.27
2023-04-08T20:39:30.040Z,37.13
2023-04-08T20:42:18.115Z,37.70
2023-04-08T20:45:07.559Z,35.63
2023-04-08T20:47:55.856Z,40.43
2023-04-08T20:50:43.992Z,36.20
2023-04-08T20:53:34.515Z,40.03
2023-04-08T20:56:22.964Z,42.33
2023-04-08T20:59:11.185Z,37.60
2023-04-08T21:01:59.484Z,36.20
2023-04-08T21:04:47.679Z,33.10
2023-04-08T21:07:38.449Z,35.20
2023-04-08T21:10:27.953Z,35.07
2023-04-08T21:13:16.294Z,36.90
2023-04-08T21:16:04.848Z,36.03
2023-04-08T21:18:53.349Z,39.10
2023-04-08T21:21:41.546Z,43.67
2023-04-08T21:24:29.745Z,43.27
2023-04-08T21:27:19.738Z,40.03
2023-04-08T21:30:09.075Z,38.87
2023-04-08T21:32:57.276Z,39.13
2023-04-08T21:35:45.589Z,38.10
2023-04-08T21:38:33.691Z,37.53
2023-04-08T21:41:21.998Z,35.50
2023-04-08T21:44:11.491Z,37.90
2023-04-08T21:47:01.672Z,34.87
2023-04-08T21:49:50.117Z,36.17
2023-04-08T21:52:38.649Z,32.03
2023-04-08T21:55:27.192Z,35.07
2023-04-08T21:58:16.564Z,32.50
2023-04-08T22:01:06.231Z,31.53
2023-04-08T22:03:55.564Z,35.00
2023-04-08T22:06:43.786Z,35.03
2023-04-08T22:09:31.893Z,35.90
2023-04-08T22:12:20.046Z,35.73
2023-04-08T22:15:09.455Z,35.43
2023-04-08T22:17:59.133Z,37.13
2023-04-08T22:20:47.234Z,39.00
2023-04-08T22:23:35.697Z,31.47
2023-04-08T22:26:23.840Z,33.60
2023-04-08T22:29:12.138Z,36.30
2023-04-08T22:32:00.331Z,35.90
2023-04-08T22:34:49.988Z,38.57
2023-04-08T22:37:38.182Z,37.43
2023-04-08T22:40:26.400Z,35.80
2023-04-08T22:43:14.601Z,42.70
2023-04-08T22:46:02.723Z,37.90
2023-04-08T22:48:50.980Z,32.40
2023-04-08T22:51:40.763Z,35.67
2023-04-08T22:54:28.881Z,36.57
2023-04-08T22:57:17.387Z,35.80
2023-04-08T23:00:06.565Z,37.90
2023-04-08T23:02:54.705Z,36.50
2023-04-08T23:05:43.164Z,40.77
2023-04-08T23:08:32.627Z,40.47
2023-04-08T23:11:20.732Z,39.33
2023-04-08T23:14:08.864Z,39.10
2023-04-08T23:16:57.027Z,41.33
2023-04-08T23:19:45.103Z,41.53
2023-04-08T23:22:33.424Z,46.80
2023-04-08T23:25:23.030Z,42.47
2023-04-08T23:28:11.047Z,41.83
2023-04-08T23:30:59.222Z,44.13
2023-04-08T23:33:47.338Z,44.97
2023-04-08T23:36:35.657Z,45.27
2023-04-08T23:39:23.711Z,38.20
2023-04-08T23:42:13.395Z,41.10
2023-04-08T23:45:01.453Z,41.50
2023-04-08T23:47:49.501Z,43.00
2023-04-08T23:50:37.594Z,40.60
2023-04-08T23:53:25.635Z,37.30
2023-04-08T23:56:13.710Z,42.00
2023-04-08T23:59:03.175Z,38.67
